Monte Vista, Colorado
Current Conditions -  °F | °C
As of 3:30 PM on Sunday 25 Jan 2015 (Local Time) from KRCV Reporting Station
Clear Clear  
Wind Chill: 40°   Ceiling: Unl
Heat Index: 40°   Visibility: 10mi
Dew Point: 23°   Wind: 3mph
Humidity: 50%   Direction: 60°ENE
Pressure: 30.31"   Gusts: NA
Location:  37.58°N, 106.15°W
Report Text: KRCV 252230Z AUTO 06003KT 10SM CLR 04/M05 A3031 RMK AO2 T00441052
Loading
Personal Weather Stations






























Interactive Weather Map New forecast layout! Learn more

10-Day Weather Forecast

Advertisements
Track Severe Weather on mobile